Time;durP1;ratioP1;P1;durP2;ratioP2;P2;SDS_P1;SDS_P2;PMS_P1;PMS_P2;Temp;Humidity;BMP_temperature;BMP_pressure;BME280_temperature;BME280_humidity;BME280_pressure;Samples;Min_cycle;Max_cycle;Signal;HPM_P1;HPM_P2
2021/12/08 00:00:42;;;;;;;36.50;22.38;;;;;;;2.29;96.31;99170.16;6127318;23;20024;-79
2021/12/08 00:03:12;;;;;;;38.15;21.83;;;;;;;2.31;95.96;99157.88;6127397;23;20041;-79
2021/12/08 00:05:39;;;;;;;37.25;22.08;;;;;;;2.32;96.22;99169.13;6127731;23;20357;-80
2021/12/08 00:08:06;;;;;;;32.55;20.90;;;;;;;2.35;96.26;99168.94;6149899;23;20005;-79
2021/12/08 00:15:29;;;;;;;35.58;22.05;;;;;;;2.33;96.09;99165.59;6127339;23;20063;-79
2021/12/08 00:17:56;;;;;;;37.28;22.27;;;;;;;2.33;96.49;99170.78;6126976;23;20057;-78
2021/12/08 00:20:22;;;;;;;33.28;20.38;;;;;;;2.32;96.61;99163.91;6126732;23;20026;-80
2021/12/08 00:22:47;;;;;;;33.75;19.88;;;;;;;2.31;96.35;99173.47;6125305;23;20081;-79
2021/12/08 00:25:13;;;;;;;33.92;20.42;;;;;;;2.30;96.21;99186.59;6126194;23;20465;-79
2021/12/08 00:27:38;;;;;;;31.33;19.70;;;;;;;2.30;96.91;99191.81;6127065;23;20087;-80
2021/12/08 00:30:06;;;;;;;33.38;19.77;;;;;;;2.36;96.68;99196.59;6127033;23;20010;-79
2021/12/08 00:32:34;;;;;;;31.67;20.23;;;;;;;2.38;96.55;99194.75;6126983;23;20012;-78
2021/12/08 00:35:00;;;;;;;33.70;20.80;;;;;;;2.45;96.19;99196.03;6126519;23;20012;-79
2021/12/08 00:37:27;;;;;;;36.17;21.92;;;;;;;2.46;96.34;99197.69;6127933;23;20029;-78
2021/12/08 00:39:53;;;;;;;31.08;19.73;;;;;;;2.51;95.74;99198.22;6127537;23;20006;-79
2021/12/08 00:42:19;;;;;;;32.50;20.50;;;;;;;2.54;95.68;99199.78;6136902;23;20074;-79
2021/12/08 00:44:46;;;;;;;34.00;21.23;;;;;;;2.56;95.67;99188.34;6139029;23;20093;-79
2021/12/08 00:47:12;;;;;;;36.67;20.50;;;;;;;2.59;95.64;99187.31;6140559;23;20021;-80
2021/12/08 00:49:39;;;;;;;33.85;21.50;;;;;;;2.62;95.86;99187.94;6143023;23;20061;-79
2021/12/08 00:52:05;;;;;;;38.10;20.98;;;;;;;2.63;96.29;99184.41;6136030;23;20455;-78
2021/12/08 00:54:31;;;;;;;35.13;20.98;;;;;;;2.62;96.45;99176.69;6127626;23;20086;-79
2021/12/08 00:56:57;;;;;;;34.03;21.85;;;;;;;2.61;96.48;99175.00;6127751;23;20022;-80
2021/12/08 00:59:24;;;;;;;40.90;21.92;;;;;;;2.61;97.27;99175.00;6148950;23;20340;-79
2021/12/08 01:01:50;;;;;;;32.95;20.60;;;;;;;2.62;98.01;99177.50;6125885;23;20033;-79
2021/12/08 01:04:16;;;;;;;35.35;21.85;;;;;;;2.60;98.58;99174.16;6125803;23;20037;-78
2021/12/08 01:06:43;;;;;;;35.35;21.85;;;;;;;2.58;99.42;99176.06;6125100;23;20002;-78
2021/12/08 01:09:10;;;;;;;36.22;23.13;;;;;;;2.50;100.00;99173.13;6125750;23;20037;-79
2021/12/08 01:11:36;;;;;;;36.15;22.40;;;;;;;2.47;100.00;99168.13;6123511;23;20065;-80
2021/12/08 01:14:01;;;;;;;36.50;21.98;;;;;;;2.43;100.00;99174.44;6125308;23;20010;-78
2021/12/08 01:16:27;;;;;;;36.05;22.92;;;;;;;2.44;100.00;99173.53;6125076;23;20018;-78
2021/12/08 01:18:53;;;;;;;41.90;23.67;;;;;;;2.43;100.00;99183.09;6124816;23;20046;-79
2021/12/08 01:21:20;;;;;;;49.30;24.77;;;;;;;2.40;100.00;99177.28;6125449;23;20064;-78
2021/12/08 01:23:47;;;;;;;37.33;22.95;;;;;;;2.38;100.00;99173.91;6124628;23;20077;-79
2021/12/08 01:26:12;;;;;;;36.08;23.00;;;;;;;2.39;100.00;99178.19;6125275;23;20006;-77
2021/12/08 01:28:38;;;;;;;35.05;22.98;;;;;;;2.41;100.00;99173.72;6124511;23;20006;-79
2021/12/08 01:31:04;;;;;;;36.67;21.13;;;;;;;2.44;100.00;99168.31;6125529;23;20013;-78
2021/12/08 01:33:33;;;;;;;32.28;20.70;;;;;;;2.46;100.00;99171.66;6126556;23;20014;-78
2021/12/08 01:36:02;;;;;;;37.42;21.27;;;;;;;2.44;100.00;99163.09;6131590;23;20006;-80
2021/12/08 01:38:27;;;;;;;32.75;20.20;;;;;;;2.43;100.00;99171.84;6151603;23;20412;-79
2021/12/08 01:40:53;;;;;;;29.88;19.50;;;;;;;2.38;100.00;99159.13;6128151;23;20045;-78
2021/12/08 01:43:27;;;;;;;29.55;19.30;;;;;;;2.42;100.00;99159.75;6125138;23;20109;-79
2021/12/08 01:46:05;;;;;;;26.80;19.10;;;;;;;2.47;100.00;99168.13;6123321;23;20065;-79
2021/12/08 01:48:34;;;;;;;27.52;18.05;;;;;;;2.51;100.00;99164.38;6125112;23;20017;-78
2021/12/08 01:51:10;;;;;;;27.05;18.10;;;;;;;2.53;100.00;99165.13;6125324;23;20014;-78
2021/12/08 01:53:37;;;;;;;25.80;18.10;;;;;;;2.55;100.00;99165.81;6145371;23;20020;-79
2021/12/08 01:56:02;;;;;;;24.17;17.50;;;;;;;2.56;100.00;99161.44;6123123;23;20379;-78
2021/12/08 01:58:29;;;;;;;26.15;18.77;;;;;;;2.58;100.00;99155.22;6122880;23;20086;-78
2021/12/08 02:00:59;;;;;;;25.58;17.25;;;;;;;2.57;100.00;99143.13;6124440;23;20299;-78
2021/12/08 02:03:26;;;;;;;;;;;;;;;2.58;100.00;99144.81;6149390;23;20017;-78
2021/12/08 02:05:53;;;;;;;24.02;17.25;;;;;;;2.59;100.00;99136.06;6125442;23;19988;-78
2021/12/08 02:08:20;;;;;;;26.45;18.08;;;;;;;2.61;100.00;99128.94;6125363;23;20014;-80
2021/12/08 02:10:46;;;;;;;24.33;16.58;;;;;;;2.62;100.00;99115.00;6099184;23;20427;-79
2021/12/08 02:13:12;;;;;;;24.33;17.15;;;;;;;2.63;100.00;99101.03;6125552;23;20061;-80
2021/12/08 02:15:38;;;;;;;26.60;17.70;;;;;;;2.65;100.00;99104.34;6123287;23;20101;-79
2021/12/08 02:18:07;;;;;;;26.77;18.42;;;;;;;2.67;100.00;99107.69;6126029;23;20010;-80
2021/12/08 02:20:34;;;;;;;24.35;17.52;;;;;;;2.70;100.00;99104.06;6125814;23;20018;-80
2021/12/08 02:22:59;;;;;;;28.30;17.35;;;;;;;2.72;100.00;99100.41;6125313;23;20408;-79
2021/12/08 02:25:26;;;;;;;23.50;17.13;;;;;;;2.74;100.00;99090.72;6125933;23;20069;-79
2021/12/08 02:27:55;;;;;;;23.70;16.83;;;;;;;2.74;100.00;99093.31;6125714;23;20028;-78
2021/12/08 02:30:43;;;;;;;24.40;18.10;;;;;;;2.77;100.00;99080.06;6125933;23;20018;-78
2021/12/08 02:47:12;;;;;;;29.27;18.77;;;;;;;2.68;100.00;99059.03;6128010;23;20013;-79
2021/12/08 02:49:38;;;;;;;29.13;18.38;;;;;;;2.62;100.00;99054.25;6154646;23;20249;-78
2021/12/08 02:52:07;;;;;;;27.42;19.25;;;;;;;2.54;100.00;99041.75;6131847;23;20089;-79
2021/12/08 02:54:37;;;;;;;26.00;19.02;;;;;;;2.47;100.00;99043.13;6138411;23;20010;-78
2021/12/08 02:57:04;;;;;;;27.42;19.98;;;;;;;2.43;100.00;99039.03;6141130;23;20018;-78
2021/12/08 02:59:29;;;;;;;28.48;19.92;;;;;;;2.39;100.00;99048.84;6135676;23;20014;-80
2021/12/08 03:01:55;;;;;;;27.60;19.65;;;;;;;2.37;100.00;99031.63;6160624;23;20057;-79
2021/12/08 03:04:21;;;;;;;28.58;20.35;;;;;;;2.36;100.00;99024.75;6150573;23;20020;-78
2021/12/08 03:06:46;;;;;;;28.75;20.08;;;;;;;2.36;100.00;99019.56;6149327;23;20103;-78
2021/12/08 03:09:12;;;;;;;26.38;19.58;;;;;;;2.36;100.00;99019.56;6141748;23;20010;-79
2021/12/08 03:11:37;;;;;;;27.83;20.38;;;;;;;2.38;100.00;99022.91;6135086;23;20013;-78
2021/12/08 03:14:03;;;;;;;29.60;21.15;;;;;;;2.40;100.00;99026.25;6129575;23;20319;-79
2021/12/08 03:16:29;;;;;;;29.13;20.48;;;;;;;2.38;100.00;99017.69;6153211;23;20017;-79
2021/12/08 03:18:55;;;;;;;27.35;20.25;;;;;;;2.43;100.00;99006.03;6127193;23;20010;-79
2021/12/08 03:21:28;;;;;;;31.05;21.33;;;;;;;2.46;100.00;98994.56;6128957;23;20014;-79
2021/12/08 03:24:08;;;;;;;28.95;20.17;;;;;;;2.48;100.00;98987.47;6131941;23;20020;-79
2021/12/08 03:26:35;;;;;;;29.93;20.67;;;;;;;2.48;100.00;98984.88;6131968;23;20029;-80
2021/12/08 03:29:17;;;;;;;29.63;21.27;;;;;;;2.50;100.00;98980.41;6131895;23;20087;-79
2021/12/08 03:31:45;;;;;;;29.05;20.80;;;;;;;2.51;100.00;98987.28;6133383;23;20018;-79
2021/12/08 03:34:12;;;;;;;31.23;22.42;;;;;;;2.53;100.00;98989.78;6132186;23;20010;-78
2021/12/08 03:36:38;;;;;;;30.10;22.05;;;;;;;2.52;100.00;98994.16;6130386;23;20009;-79
2021/12/08 03:39:05;;;;;;;31.38;22.77;;;;;;;2.53;100.00;98995.00;6127090;23;20006;-79
2021/12/08 03:41:33;;;;;;;30.33;21.95;;;;;;;2.55;100.00;98998.31;6127321;23;20045;-79
2021/12/08 03:44:00;;;;;;;33.90;21.75;;;;;;;2.55;100.00;99008.72;6126891;23;20006;-79
2021/12/08 03:46:28;;;;;;;30.98;22.83;;;;;;;2.57;100.00;99002.47;6127467;23;20029;-78
2021/12/08 03:48:54;;;;;;;32.47;23.48;;;;;;;2.57;100.00;99006.84;6126606;23;20009;-79
2021/12/08 03:51:19;;;;;;;29.60;22.05;;;;;;;2.57;100.00;99015.50;6127592;23;20025;-78
2021/12/08 03:53:46;;;;;;;31.67;23.05;;;;;;;2.58;100.00;99004.16;6126984;23;20486;-79
2021/12/08 03:56:12;;;;;;;33.65;22.77;;;;;;;2.56;100.00;98979.13;6127387;23;20041;-80
2021/12/08 03:58:38;;;;;;;31.63;22.88;;;;;;;2.46;100.00;98961.56;6125596;23;20022;-79
2021/12/08 04:01:05;;;;;;;36.88;23.45;;;;;;;2.42;100.00;98956.63;6127151;23;20284;-79
2021/12/08 04:03:33;;;;;;;30.90;23.45;;;;;;;2.39;100.00;98942.09;6126434;23;20018;-80
2021/12/08 04:06:03;;;;;;;33.88;23.58;;;;;;;2.39;100.00;98951.66;6126226;23;20002;-79
2021/12/08 04:08:53;;;;;;;30.73;22.98;;;;;;;2.35;100.00;98963.25;6126084;23;20014;-79
2021/12/08 04:11:18;;;;;;;37.60;23.60;;;;;;;2.32;100.00;98981.66;6126629;23;20017;-78
2021/12/08 04:13:51;;;;;;;35.20;23.70;;;;;;;2.29;100.00;98987.94;6125959;23;20246;-79
2021/12/08 04:16:22;;;;;;;34.55;22.45;;;;;;;2.27;100.00;98975.94;6126402;23;20042;-79
2021/12/08 04:18:48;;;;;;;30.50;23.05;;;;;;;2.24;100.00;98963.94;6126350;23;20097;-78
2021/12/08 04:21:15;;;;;;;33.38;24.17;;;;;;;2.17;100.00;98952.31;6125968;23;20014;-79
2021/12/08 04:23:42;;;;;;;35.03;24.33;;;;;;;2.10;100.00;98960.63;6123109;23;20014;-80
2021/12/08 04:26:14;;;;;;;33.45;23.10;;;;;;;2.05;100.00;98953.97;6125698;23;20014;-80
2021/12/08 04:28:41;;;;;;;32.60;23.73;;;;;;;2.03;100.00;98950.63;6125320;23;20340;-80
2021/12/08 04:31:27;;;;;;;32.30;22.85;;;;;;;2.00;100.00;98940.44;6125844;23;20018;-80
2021/12/08 04:33:58;;;;;;;31.92;22.85;;;;;;;1.98;100.00;98938.88;6125569;23;20613;-78
2021/12/08 04:36:26;;;;;;;36.25;24.58;;;;;;;1.96;100.00;98938.97;6125622;23;20375;-79
2021/12/08 04:38:56;;;;;;;33.15;22.92;;;;;;;1.93;100.00;98928.78;6125100;23;20277;-79
2021/12/08 04:41:31;;;;;;;37.25;24.13;;;;;;;1.94;100.00;98922.66;6124382;23;20020;-78
2021/12/08 04:52:29;;;;;;;33.30;24.25;;;;;;;1.82;100.00;98936.50;6125858;23;20042;-79
2021/12/08 05:03:43;;;;;;;36.95;25.55;;;;;;;1.67;100.00;98921.06;6144210;23;20403;-79
2021/12/08 05:06:23;;;;;;;36.58;25.98;;;;;;;1.63;100.00;98915.25;6144361;23;20022;-78
2021/12/08 05:08:56;;;;;;;36.33;25.50;;;;;;;1.59;100.00;98909.38;6138786;23;20014;-78
2021/12/08 05:11:25;;;;;;;39.88;26.85;;;;;;;1.56;100.00;98907.00;6131780;23;20167;-79
2021/12/08 05:14:06;;;;;;;35.92;26.63;;;;;;;1.58;100.00;98912.94;6126066;23;20026;-78
2021/12/08 05:16:34;;;;;;;37.65;27.02;;;;;;;1.49;100.00;98884.13;6126778;23;20018;-79
2021/12/08 05:19:02;;;;;;;37.90;26.00;;;;;;;1.46;100.00;98879.97;6148767;23;20010;-79
2021/12/08 05:21:39;;;;;;;37.90;26.63;;;;;;;1.44;100.00;98888.78;6125414;23;20040;-78
2021/12/08 05:24:04;;;;;;;36.00;26.38;;;;;;;1.42;100.00;98901.03;6125388;23;20089;-80
2021/12/08 05:27:16;;;;;;;37.55;26.55;;;;;;;1.41;100.00;98904.59;6125273;23;20037;-79
2021/12/08 05:29:48;;;;;;;39.65;27.40;;;;;;;1.40;100.00;98908.13;6125603;23;20021;-78
2021/12/08 05:32:15;;;;;;;35.90;26.10;;;;;;;1.39;100.00;98902.09;6125408;23;20035;-79
2021/12/08 05:34:42;;;;;;;38.40;26.67;;;;;;;1.36;100.00;98896.25;6125171;23;20449;-79
2021/12/08 05:37:13;;;;;;;39.35;27.10;;;;;;;1.36;100.00;98893.66;6125223;23;20032;-78
2021/12/08 05:39:40;;;;;;;37.83;26.73;;;;;;;1.36;100.00;98880.66;6124648;23;20014;-79
2021/12/08 05:42:11;;;;;;;36.90;26.08;;;;;;;1.32;100.00;98867.03;6125090;23;20006;-79
2021/12/08 05:44:38;;;;;;;34.33;25.23;;;;;;;1.28;100.00;98856.97;6124720;23;20304;-78
2021/12/08 05:47:08;;;;;;;34.00;26.33;;;;;;;1.29;100.00;98851.66;6125395;23;20014;-78
2021/12/08 05:49:34;;;;;;;35.88;26.25;;;;;;;1.30;100.00;98868.09;6125490;23;20082;-78
2021/12/08 05:52:01;;;;;;;36.60;27.42;;;;;;;1.31;100.00;98882.72;6127938;23;20029;-80
2021/12/08 05:54:32;;;;;;;33.45;24.98;;;;;;;1.33;100.00;98886.06;6126214;23;20029;-79
2021/12/08 05:57:02;;;;;;;34.03;24.73;;;;;;;1.33;100.00;98886.91;6125139;23;20025;-79
2021/12/08 05:59:28;;;;;;;34.72;23.42;;;;;;;1.35;100.00;98879.84;6123641;23;20034;-79
2021/12/08 06:01:56;;;;;;;31.85;24.08;;;;;;;1.41;100.00;98873.41;6125085;23;20014;-79
2021/12/08 06:04:25;;;;;;;31.08;24.55;;;;;;;1.40;100.00;98853.53;6125791;23;20073;-80
2021/12/08 06:06:51;;;;;;;29.80;23.42;;;;;;;1.35;100.00;98843.47;6127370;23;20018;-79
2021/12/08 06:09:19;;;;;;;29.35;23.50;;;;;;;1.34;100.00;98840.94;6127320;23;20009;-79
2021/12/08 06:11:46;;;;;;;29.85;23.33;;;;;;;1.33;100.00;98853.13;6124231;23;20045;-80
2021/12/08 06:14:11;;;;;;;31.38;24.10;;;;;;;1.32;100.00;98848.84;6127106;23;20520;-79
2021/12/08 06:16:39;;;;;;;30.45;23.52;;;;;;;1.33;100.00;98839.28;6126125;23;20053;-80
2021/12/08 06:19:07;;;;;;;31.48;24.25;;;;;;;1.35;100.00;98853.03;6127378;23;20041;-80
2021/12/08 06:21:33;;;;;;;30.27;23.27;;;;;;;1.35;100.00;98843.47;6127502;23;20148;-79
2021/12/08 06:24:02;;;;;;;28.50;23.35;;;;;;;1.37;100.00;98845.94;6127548;23;20018;-79
2021/12/08 06:26:28;;;;;;;33.67;24.73;;;;;;;1.35;100.00;98837.44;6127205;23;20022;-79
2021/12/08 06:28:54;;;;;;;30.42;23.38;;;;;;;1.34;100.00;98835.75;6127093;23;20045;-79
2021/12/08 06:31:23;;;;;;;31.10;24.20;;;;;;;1.24;100.00;98818.16;6127533;23;20018;-79
2021/12/08 06:33:49;;;;;;;31.92;23.88;;;;;;;1.20;100.00;98816.72;6129160;23;20010;-80
2021/12/08 06:36:37;;;;;;;34.20;26.58;;;;;;;1.10;100.00;98810.47;6135626;23;20006;-78
2021/12/08 06:39:10;;;;;;;33.35;25.13;;;;;;;1.01;100.00;98813.66;6145330;23;20025;-79
2021/12/08 06:41:40;;;;;;;33.53;25.75;;;;;;;0.92;100.00;98819.47;6139019;23;20099;-79
2021/12/08 06:44:10;;;;;;;35.78;25.38;;;;;;;0.85;100.00;98828.59;6131093;23;20081;-79
2021/12/08 06:46:38;;;;;;;33.13;25.65;;;;;;;0.75;100.00;98823.16;6129267;23;20423;-79
2021/12/08 06:49:07;;;;;;;34.55;25.55;;;;;;;0.68;100.00;98826.25;6131626;23;20014;-80
2021/12/08 06:51:44;;;;;;;35.38;25.48;;;;;;;0.60;100.00;98810.31;6126615;23;20014;-77
2021/12/08 06:54:16;;;;;;;34.60;25.70;;;;;;;0.62;100.00;98808.47;6127305;23;20101;-79
2021/12/08 06:56:51;;;;;;;32.42;26.25;;;;;;;0.62;100.00;98811.06;6125937;23;20434;-76
2021/12/08 06:59:22;;;;;;;33.88;25.60;;;;;;;0.63;100.00;98823.97;6126889;23;20369;-78
2021/12/08 07:04:53;;;;;;;33.38;24.80;;;;;;;0.54;100.00;98840.09;6127013;23;20010;-78
2021/12/08 07:07:24;;;;;;;33.58;24.67;;;;;;;0.53;100.00;98840.22;6127135;23;20021;-78
2021/12/08 07:09:58;;;;;;;;;;;;;;;0.46;100.00;98836.34;6143532;23;20024;-78
2021/12/08 07:12:32;;;;;;;33.40;24.30;;;;;;;0.43;100.00;98831.34;6144328;23;19956;-76
2021/12/08 07:15:08;;;;;;;33.28;24.67;;;;;;;0.40;100.00;98825.44;6129117;23;20369;-79
2021/12/08 07:17:37;;;;;;;35.10;24.55;;;;;;;0.43;100.00;98826.16;6141438;23;20021;-77
2021/12/08 07:23:25;;;;;;;32.50;24.50;;;;;;;0.38;100.00;98803.91;6036961;23;20029;-75
2021/12/08 07:25:54;;;;;;;32.78;25.48;;;;;;;0.36;100.00;98797.16;6036485;23;20535;-78
2021/12/08 07:28:22;;;;;;;34.20;24.83;;;;;;;0.40;100.00;98796.88;6037093;23;20022;-76
2021/12/08 07:31:01;;;;;;;28.25;23.45;;;;;;;0.47;100.00;98796.50;6035788;23;20015;-78
2021/12/08 07:33:27;;;;;;;29.25;24.08;;;;;;;0.50;100.00;98804.91;6032715;23;20544;-76
2021/12/08 07:35:56;;;;;;;27.23;22.48;;;;;;;0.55;100.00;98817.56;6033244;23;20007;-77
2021/12/08 07:38:26;;;;;;;25.33;20.85;;;;;;;0.57;100.00;98839.94;6034289;23;20103;-79
2021/12/08 07:41:08;;;;;;;24.08;21.15;;;;;;;0.59;100.00;98834.66;6033780;23;20019;-79
2021/12/08 07:43:37;;;;;;;23.67;19.83;;;;;;;0.57;100.00;98849.47;6033662;23;20015;-81
2021/12/08 07:46:07;;;;;;;24.10;19.38;;;;;;;0.55;100.00;98853.91;6033635;23;20043;-75
2021/12/08 07:48:48;;;;;;;22.33;19.67;;;;;;;0.50;100.00;98830.03;6033674;23;20027;-79
2021/12/08 07:51:19;;;;;;;;;;;;;;;0.48;100.00;98798.13;6035284;23;20027;-78
2021/12/08 07:53:46;;;;;;;23.70;19.52;;;;;;;0.54;100.00;98789.94;6071718;23;19913;-80
2021/12/08 07:56:14;;;;;;;24.25;19.45;;;;;;;0.57;100.00;98794.97;6125245;23;20121;-80
2021/12/08 07:58:42;;;;;;;21.05;18.85;;;;;;;0.61;100.00;98793.81;6123978;23;20005;-79
2021/12/08 08:01:12;;;;;;;20.38;17.98;;;;;;;0.59;100.00;98790.50;6123479;23;20052;-80
2021/12/08 08:03:39;;;;;;;21.98;18.52;;;;;;;0.57;100.00;98787.16;6123245;23;20107;-81
2021/12/08 08:06:11;;;;;;;20.13;18.08;;;;;;;0.60;100.00;98782.59;6124243;23;20013;-81
2021/12/08 08:08:37;;;;;;;22.52;18.48;;;;;;;0.65;100.00;98769.34;6122724;23;20128;-82
2021/12/08 08:11:15;;;;;;;20.02;17.80;;;;;;;0.74;100.00;98753.16;6123127;23;20340;-80
2021/12/08 08:13:41;;;;;;;18.33;16.50;;;;;;;0.80;100.00;98747.56;6123246;23;20029;-81
2021/12/08 08:16:13;;;;;;;18.08;16.27;;;;;;;0.83;100.00;98747.34;6123894;23;20755;-78
2021/12/08 08:18:44;;;;;;;17.73;15.93;;;;;;;0.83;100.00;98731.75;6121269;23;20013;-80
2021/12/08 08:21:19;;;;;;;16.70;15.10;;;;;;;0.88;100.00;98739.25;6123886;23;20324;-79
2021/12/08 08:23:46;;;;;;;15.57;13.88;;;;;;;0.92;100.00;98772.72;6146526;23;20444;-79
2021/12/08 08:26:12;;;;;;;16.02;14.57;;;;;;;0.87;100.00;98805.13;6126070;23;20006;-78
2021/12/08 08:28:39;;;;;;;17.38;14.32;;;;;;;0.84;100.00;98800.94;6148392;23;20014;-79
2021/12/08 08:31:17;;;;;;;15.20;13.63;;;;;;;0.85;100.00;98804.38;6124032;23;20188;-83
2021/12/08 08:33:43;;;;;;;16.27;14.73;;;;;;;0.75;100.00;98786.81;6126082;23;20017;-83
2021/12/08 08:36:17;;;;;;;14.70;13.30;;;;;;;0.67;100.00;98789.06;6150667;23;20014;-81
2021/12/08 08:38:50;;;;;;;15.70;14.25;;;;;;;0.61;100.00;98793.81;6150298;23;20105;-82
2021/12/08 08:41:21;;;;;;;15.25;13.85;;;;;;;0.64;100.00;98802.25;6150411;23;20031;-80
2021/12/08 08:43:51;;;;;;;15.63;14.18;;;;;;;0.72;100.00;98802.56;6150745;23;20021;-83
2021/12/08 08:46:21;;;;;;;15.80;14.35;;;;;;;0.75;100.00;98780.78;6126021;23;20133;-84
2021/12/08 08:48:54;;;;;;;15.88;14.38;;;;;;;0.78;100.00;98771.00;6125901;23;20010;-81
2021/12/08 08:51:31;;;;;;;14.35;13.15;;;;;;;0.82;100.00;98761.28;6127105;23;20010;-80
2021/12/08 08:54:02;;;;;;;13.80;12.50;;;;;;;0.81;100.00;98768.22;6127732;23;20105;-81
2021/12/08 08:56:32;;;;;;;12.43;11.48;;;;;;;0.81;100.00;98757.00;6133914;23;20053;-84
2021/12/08 08:59:03;;;;;;;13.13;12.00;;;;;;;0.87;100.00;98747.97;6143265;23;20001;-84
2021/12/08 09:01:44;;;;;;;12.50;11.30;;;;;;;0.92;100.00;98741.53;5078739;28;20393;-80
2021/12/08 09:04:18;;;;;;;11.73;10.80;;;;;;;0.95;100.00;98732.69;5072922;28;20029;-79
2021/12/08 09:06:47;;;;;;;11.18;10.27;;;;;;;1.00;100.00;98734.06;5057605;28;20033;-82
2021/12/08 09:09:19;;;;;;;12.13;10.88;;;;;;;1.02;100.00;98737.38;5057348;28;20029;-81
2021/12/08 09:11:52;;;;;;;11.80;10.82;;;;;;;1.00;100.00;98741.84;5046915;28;20112;-81
2021/12/08 09:14:24;;;;;;;11.48;10.52;;;;;;;0.99;100.00;98729.81;5068024;28;20111;-81
2021/12/08 09:16:59;;;;;;;12.57;11.48;;;;;;;0.96;100.00;98716.19;5058342;28;20040;-82
2021/12/08 09:19:35;;;;;;;12.07;11.00;;;;;;;0.96;100.00;98701.44;5059467;28;20033;-82
2021/12/08 09:22:04;;;;;;;12.00;10.93;;;;;;;0.96;100.00;98696.22;5059319;28;20041;-81
2021/12/08 09:24:37;;;;;;;11.50;10.52;;;;;;;0.98;100.00;98696.13;5059405;28;20033;-82
2021/12/08 09:27:08;;;;;;;11.25;10.27;;;;;;;1.01;100.00;98699.34;5055842;28;20127;-82
2021/12/08 09:29:44;;;;;;;11.32;10.23;;;;;;;1.04;100.00;98699.16;5060543;28;20040;-82
2021/12/08 09:32:24;;;;;;;11.23;10.30;;;;;;;1.10;100.00;98698.75;5058224;28;20503;-82
2021/12/08 09:34:59;;;;;;;10.73;9.85;;;;;;;1.15;100.00;98683.66;5060769;28;20135;-81
2021/12/08 09:37:32;;;;;;;11.02;10.13;;;;;;;1.20;100.00;98691.97;5059390;28;20478;-81
2021/12/08 09:40:28;;;;;;;11.25;10.35;;;;;;;1.20;100.00;98704.97;5062027;28;20064;-81
2021/12/08 09:42:59;;;;;;;10.68;9.75;;;;;;;1.19;100.00;98712.84;5055348;28;20137;-81
2021/12/08 09:45:37;;;;;;;9.70;8.90;;;;;;;1.21;100.00;98706.63;5064240;28;20028;-81
2021/12/08 09:48:06;;;;;;;9.30;8.60;;;;;;;1.20;100.00;98702.38;5058151;28;20031;-82
2021/12/08 09:50:32;;;;;;;10.80;9.90;;;;;;;1.22;100.00;98692.72;5060188;28;20424;-82
2021/12/08 09:52:57;;;;;;;11.20;10.27;;;;;;;1.23;100.00;98699.56;5057577;28;20033;-81
2021/12/08 09:55:23;;;;;;;10.18;9.27;;;;;;;1.22;100.00;98708.31;5056835;28;20044;-80
2021/12/08 09:57:49;;;;;;;10.65;9.65;;;;;;;1.15;100.00;98704.44;5062081;28;20029;-81
2021/12/08 10:00:25;;;;;;;10.77;9.88;;;;;;;1.08;100.00;98685.00;5081233;28;20048;-82
2021/12/08 10:02:57;;;;;;;11.25;10.25;;;;;;;1.03;100.00;98668.91;5070459;28;20037;-83
2021/12/08 10:05:25;;;;;;;11.63;10.57;;;;;;;1.04;100.00;98672.34;5079098;28;20056;-79
2021/12/08 10:07:51;;;;;;;11.27;10.27;;;;;;;1.03;100.00;98668.91;5074963;28;20029;-81
2021/12/08 10:10:17;;;;;;;12.35;11.25;;;;;;;0.99;100.00;98657.06;5066200;28;20025;-82
2021/12/08 10:12:43;;;;;;;12.40;11.32;;;;;;;0.96;100.00;98639.09;5053088;28;20117;-82
2021/12/08 10:15:12;;;;;;;12.48;11.40;;;;;;;1.04;100.00;98629.00;5044460;28;20036;-81
2021/12/08 10:17:38;;;;;;;12.47;11.33;;;;;;;1.11;100.00;98606.03;5044621;28;20121;-82
2021/12/08 10:20:15;;;;;;;12.20;11.00;;;;;;;1.19;100.00;98614.09;5044091;28;20696;-82
2021/12/08 10:22:43;;;;;;;11.82;10.82;;;;;;;1.23;100.00;98615.59;5044716;28;20050;-82
2021/12/08 10:25:18;;;;;;;13.15;11.95;;;;;;;1.19;100.00;98616.72;5042970;28;20033;-81
2021/12/08 10:28:06;;;;;;;13.80;12.48;;;;;;;1.23;100.00;98611.22;5038861;28;20182;-82
2021/12/08 10:30:54;;;;;;;13.55;12.35;;;;;;;1.29;100.00;98609.94;5043609;28;20037;-81
2021/12/08 10:36:34;;;;;;;12.50;11.30;;;;;;;1.37;100.00;98593.78;5038801;28;20107;-82
2021/12/08 10:39:07;;;;;;;13.70;12.02;;;;;;;1.40;100.00;98570.19;5042531;28;20033;-81
2021/12/08 10:42:00;;;;;;;13.00;11.82;;;;;;;1.43;100.00;98544.81;5043801;28;20033;-83
2021/12/08 10:44:56;;;;;;;11.85;10.85;;;;;;;1.39;100.00;98547.75;5036436;28;20071;-81
2021/12/08 10:47:25;;;;;;;12.15;11.00;;;;;;;1.40;100.00;98537.25;5039864;28;20029;-81
2021/12/08 10:55:21;;;;;;;13.15;11.95;;;;;;;1.48;100.00;98515.88;5041960;28;20489;-83
2021/12/08 10:57:53;;;;;;;13.25;12.05;;;;;;;1.39;100.00;98521.75;5048070;28;20026;-82
2021/12/08 11:00:21;;;;;;;13.68;12.48;;;;;;;1.37;100.00;98539.22;5043636;28;20110;-82
2021/12/08 11:02:49;;;;;;;13.73;12.52;;;;;;;1.33;100.00;98541.22;5043219;28;20040;-82
2021/12/08 11:05:24;;;;;;;15.57;14.00;;;;;;;1.32;100.00;98515.31;5038490;28;20037;-82
2021/12/08 11:08:18;;;;;;;14.88;13.38;;;;;;;1.20;100.00;98501.44;5038620;28;20366;-81
2021/12/08 11:10:48;;;;;;;15.05;13.68;;;;;;;1.13;100.00;98511.44;5037166;28;20029;-81
2021/12/08 11:13:17;;;;;;;16.73;15.13;;;;;;;1.17;100.00;98518.09;5037414;28;20108;-81
2021/12/08 11:15:43;;;;;;;15.88;14.27;;;;;;;1.16;100.00;98524.22;5036850;28;20386;-81
2021/12/08 11:18:16;;;;;;;15.82;14.27;;;;;;;1.10;100.00;98549.81;5043807;28;20158;-81
2021/12/08 11:20:47;;;;;;;19.55;16.30;;;;;;;1.00;100.00;98541.81;5039217;28;20033;-82
2021/12/08 11:23:16;;;;;;;17.35;15.55;;;;;;;0.98;100.00;98522.94;5036523;28;20026;-81
2021/12/08 11:25:45;;;;;;;18.00;16.08;;;;;;;0.96;100.00;98519.59;5042843;28;20112;-81
2021/12/08 11:28:30;;;;;;;17.52;15.73;;;;;;;0.95;100.00;98517.94;5041429;28;20030;-81
2021/12/08 11:31:13;;;;;;;17.58;15.77;;;;;;;1.03;100.00;98525.19;5035768;28;20393;-82
2021/12/08 11:33:47;;;;;;;17.98;16.00;;;;;;;1.11;100.00;98528.94;5043923;28;20068;-81
2021/12/08 11:36:16;;;;;;;18.15;16.25;;;;;;;1.17;100.00;98512.91;5042272;28;20033;-80
2021/12/08 11:38:44;;;;;;;18.17;16.27;;;;;;;1.16;100.00;98513.00;5042283;28;20036;-82
2021/12/08 11:41:21;;;;;;;19.23;16.35;;;;;;;1.17;100.00;98518.09;5048241;28;20060;-79
2021/12/08 11:43:54;;;;;;;18.17;16.27;;;;;;;1.22;100.00;98525.56;5042098;28;20034;-81
2021/12/08 11:46:21;;;;;;;20.33;17.10;;;;;;;1.21;100.00;98518.69;5026339;28;20097;-80
2021/12/08 11:49:06;;;;;;;19.25;16.92;;;;;;;1.07;100.00;98506.69;5048152;28;20048;-81
2021/12/08 11:52:06;;;;;;;20.23;17.85;;;;;;;0.95;100.00;98497.16;5041950;28;20174;-80
2021/12/08 11:54:35;;;;;;;20.85;18.65;;;;;;;0.92;100.00;98497.38;5044495;28;20061;-81
2021/12/08 11:57:11;;;;;;;23.27;18.77;;;;;;;0.92;100.00;98481.81;5046875;28;20171;-81
2021/12/08 11:59:49;;;;;;;25.40;19.73;;;;;;;0.82;100.00;98473.00;5043676;28;20166;-80
2021/12/08 12:02:16;;;;;;;23.35;18.38;;;;;;;0.79;100.00;98475.81;5042258;28;20036;-81
2021/12/08 12:04:42;;;;;;;24.67;19.15;;;;;;;0.76;100.00;98478.63;5042141;28;20140;-81
2021/12/08 12:07:13;;;;;;;25.52;20.08;;;;;;;0.74;100.00;98477.91;5044926;28;20116;-81
2021/12/08 12:09:39;;;;;;;;;;;;;;;0.71;100.00;98478.09;5041036;28;20044;-82
2021/12/08 12:12:05;;;;;;;20.90;18.08;;;;;;;0.74;100.00;98472.72;5043354;28;19917;-82
2021/12/08 12:14:30;;;;;;;23.88;20.13;;;;;;;0.85;100.00;98474.53;5041533;28;20056;-82
2021/12/08 12:16:56;;;;;;;23.17;19.70;;;;;;;0.95;100.00;98480.72;5044649;28;20155;-81
2021/12/08 12:19:25;;;;;;;25.05;21.05;;;;;;;1.04;100.00;98462.75;5043081;28;20379;-82
2021/12/08 12:22:11;;;;;;;25.45;19.80;;;;;;;1.08;100.00;98439.97;5042765;28;20513;-82
2021/12/08 12:25:21;;;;;;;24.50;20.25;;;;;;;1.04;100.00;98413.38;5045713;28;20045;-81